Latest Weather Observations for Pallamana

IDS60901

Issued at 11:21 pm CST Monday 24 June 2019 (issued every 10 minutes, with the page automatically refreshed every 10 minutes)

About weather observations | Map of Adelaide area stations | Latest observations for Adelaide area | Other Formats
Station Details ID: 024584 Name: PALLAMANA AERODROME Lat: -35.06 Lon: 139.23 Height: 45.0 m
Data from the previous 72 hours. | See also: Recent months at Pallamana
Date/Time
CST
Temp
°C
App
Temp
°C
Dew
Point
°C
Rel
Hum
%
Delta-T
°C
Wind Press
QNH
hPa
Press
MSL
hPa
Rain since
9am
mm
Dir  Spd
km/h
Gust
km/h
Spd
kts
Gust
kts
24/11:00pm 5.6 1.4 1.6 75 1.6 NNE 13 13 7 7 1029.9 1030.0 0.0
24/10:30pm 6.1 2.6 1.0 70 2.0 N 9 13 5 7 1030.0 1030.1 0.0
24/10:00pm 6.2 2.7 1.4 71 1.9 N 9 11 5 6 1030.0 1030.1 0.0
24/09:30pm 5.7 2.3 1.7 75 1.6 NNE 9 11 5 6 1029.7 1029.8 0.0
24/09:00pm 6.3 3.2 1.2 70 2.0 N 7 9 4 5 1029.9 1030.0 0.0
24/08:30pm 6.2 3.2 1.1 70 2.0 NNE 6 7 3 4 1029.9 1030.0 0.0
24/08:00pm 6.3 2.8 1.5 71 1.9 NNE 9 9 5 5 1029.7 1029.8 0.0
24/07:30pm 6.8 2.5 1.3 68 2.2 NNE 13 15 7 8 1029.5 1029.6 0.0
24/07:00pm 7.0 3.5 1.2 66 2.3 N 9 13 5 7 1029.3 1029.4 0.0
24/06:30pm 7.5 3.6 1.3 65 2.5 NNW 11 13 6 7 1029.1 1029.2 0.0
24/06:00pm 7.7 3.7 0.6 61 2.8 NNE 11 13 6 7 1028.7 1028.8 0.0
24/05:30pm 8.5 4.2 0.8 58 3.1 NNE 13 17 7 9 1028.4 1028.5 0.0
24/05:00pm 9.0 3.5 0.8 56 3.3 NE 19 22 10 12 1028.2 1028.3 0.0
24/04:30pm 9.5 3.8 0.6 54 3.6 NE 20 24 11 13 1028.3 1028.4 0.0
24/04:00pm 10.1 4.0 0.1 50 4.0 N 22 28 12 15 1028.5 1028.6 0.0
24/03:30pm 10.2 3.6 -0.1 49 4.1 NNE 24 32 13 17 1028.3 1028.4 0.0
24/03:00pm 10.4 3.8 -0.4 47 4.3 NNE 24 32 13 17 1028.7 1028.8 0.0
24/02:30pm 10.8 2.6 -1.2 43 4.7 N 32 39 17 21 1028.8 1028.9 0.0
24/02:00pm 11.0 2.6 -0.9 43 4.7 NNE 33 41 18 22 1028.7 1028.8 0.0
24/01:30pm 10.9 2.8 0.0 47 4.4 NNE 32 37 17 20 1029.1 1029.2 0.0
24/01:00pm 12.1 3.5 0.5 45 4.8 NNE 35 46 19 25 1029.5 1029.6 0.0
24/12:30pm 10.6 3.0 0.8 50 4.0 NNE 30 39 16 21 1030.0 1030.1 0.0
24/12:00pm 9.7 2.5 0.8 54 3.6 NNE 28 37 15 20 1030.5 1030.6 0.0
24/11:30am 9.3 1.8 0.9 55 3.4 NNE 30 39 16 21 1030.7 1030.8 0.0
24/11:00am 9.1 1.2 1.2 57 3.2 NE 32 39 17 21 1030.7 1030.8 0.0
24/10:30am 7.7 1.8 1.5 65 2.5 NNE 22 30 12 16 1031.5 1031.6 0.0
24/10:00am 6.2 0.6 1.1 70 2.0 NNE 20 26 11 14 1031.6 1031.7 0.0
24/09:30am 5.6 0.6 1.3 74 1.7 NNE 17 20 9 11 1031.7 1031.8 0.0
24/09:00am 3.4 -1.0 0.5 81 1.1 NNE 13 15 7 8 1031.4 1031.5 0.0
24/08:30am 0.3 - - - - N 6 7 3 4 1031.2 1031.3 0.0
24/08:00am -1.2 - - - - NNW 9 9 5 5 1031.2 1031.3 0.0
24/07:30am -1.9 - - - - NNW 11 13 6 7 1031.1 1031.2 0.0
24/07:00am -2.4 - - - - N 9 9 5 5 1031.0 1031.1 0.0
24/06:30am -2.3 - - - - N 9 11 5 6 1031.1 1031.2 0.0
24/06:00am -2.6 - - - - N 9 9 5 5 1030.9 1031.0 0.0
24/05:30am -2.5 - - - - N 11 13 6 7 1031.1 1031.2 0.0
24/05:00am -3.1 - - - - NNW 7 9 4 5 1031.1 1031.2 0.0
24/04:30am -2.9 - - - - N 9 9 5 5 1031.2 1031.3 0.0
24/04:00am -2.3 - - - - N 7 9 4 5 1031.2 1031.3 0.0
24/03:30am -3.0 - - - - NNW 6 7 3 4 1031.4 1031.5 0.0
24/03:00am -2.3 - - - - NNW 9 11 5 6 1031.2 1031.3 0.0
24/02:30am -2.2 - - - - CALM 0 0 0 0 1030.8 1030.9 0.0
24/02:00am -2.2 - - - - E 6 7 3 4 1030.9 1031.0 0.0
24/01:30am -1.8 - - - - ESE 2 6 1 3 1030.8 1030.9 0.0
24/01:00am -1.9 - - - - CALM 0 4 0 2 1031.0 1031.1 0.0
24/12:30am -1.6 - - - - CALM 0 0 0 0 1031.0 1031.1 0.0
24/12:00am -1.3 - - - - CALM 0 0 0 0 1031.1 1031.2 0.0
 
Date/Time
CST
Temp
°C
App
Temp
°C
Dew
Point
°C
Rel
Hum
%
Delta-T
°C
Wind Press
QNH
hPa
Press
MSL
hPa
Rain since
9am
mm
Dir  Spd
km/h
Gust
km/h
Spd
kts
Gust
kts
23/11:30pm -0.8 - - - - CALM 0 0 0 0 1031.1 1031.2 0.0
23/11:00pm -0.8 - - - - CALM 0 0 0 0 1031.3 1031.4 0.0
23/10:30pm 0.4 - - - - CALM 0 0 0 0 1031.4 1031.5 0.0
23/10:00pm 0.7 - - - - CALM 0 7 0 4 1031.4 1031.5 0.0
23/09:30pm 0.5 - - - - W 4 7 2 4 1031.2 1031.3 0.0
23/09:00pm 0.9 - - - - W 6 9 3 5 1031.1 1031.2 0.0
23/08:30pm 1.6 -0.9 -1.3 81 1.0 SSW 2 6 1 3 1031.0 1031.1 0.0
23/08:00pm 2.0 -0.2 -1.4 78 1.2 CALM 0 0 0 0 1031.1 1031.2 0.0
23/07:30pm 2.4 -0.1 -1.0 78 1.2 WNW 2 7 1 4 1031.1 1031.2 0.0
23/07:00pm 2.7 0.2 -0.9 77 1.3 NW 2 4 1 2 1031.0 1031.1 0.0
23/06:30pm 5.1 1.8 -0.2 68 2.0 NW 7 9 4 5 1030.8 1030.9 0.0
23/06:00pm 6.7 4.7 -0.4 60 2.7 CALM 0 0 0 0 1030.7 1030.8 0.0
23/05:30pm 7.5 4.2 0.0 59 2.9 E 7 9 4 5 1030.4 1030.5 0.0
23/05:00pm 9.3 5.5 -0.4 50 3.8 E 9 11 5 6 1030.3 1030.4 0.0
23/04:30pm 11.1 7.1 -2.6 38 5.2 ENE 9 13 5 7 1030.1 1030.2 0.0
23/04:00pm 11.4 6.6 -2.8 37 5.4 E 13 15 7 8 1029.9 1030.0 0.0
23/03:30pm 11.8 6.9 -3.3 34 5.7 ENE 13 20 7 11 1030.0 1030.1 0.0
23/03:00pm 12.2 7.3 -3.0 34 5.8 NE 13 19 7 10 1029.9 1030.0 0.0
23/02:30pm 11.9 7.8 -2.8 35 5.6 NNE 9 15 5 8 1030.0 1030.1 0.0
23/02:00pm 11.7 7.8 -1.6 39 5.3 E 9 15 5 8 1030.1 1030.2 0.0
23/01:30pm 11.8 7.9 -1.8 38 5.3 NNE 9 17 5 9 1030.3 1030.4 0.0
23/01:00pm 11.4 6.6 -2.5 38 5.4 ENE 13 20 7 11 1030.6 1030.7 0.0
23/12:30pm 11.0 7.2 -0.9 43 4.7 E 9 13 5 7 1031.1 1031.2 0.0
23/12:00pm 10.6 7.0 0.5 49 4.1 SE 9 15 5 8 1031.5 1031.6 0.0
23/11:30am 10.3 7.0 0.4 50 4.0 NE 7 9 4 5 1032.2 1032.3 0.0
23/11:00am 9.3 7.3 2.1 61 3.0 NW 2 7 1 4 1032.4 1032.5 0.0
23/10:30am 8.5 6.8 1.6 62 2.8 CALM 0 0 0 0 1032.8 1032.9 0.0
23/10:00am 7.8 6.2 2.5 69 2.2 CALM 0 0 0 0 1033.0 1033.1 0.0
23/09:30am 6.4 4.8 2.5 76 1.6 CALM 0 0 0 0 1032.9 1033.0 0.0
23/09:00am 4.4 1.6 2.1 85 0.9 NNW 6 9 3 5 1032.5 1032.6 0.2
23/08:30am 2.8 1.1 1.8 93 0.4 CALM 0 2 0 1 1032.4 1032.5 0.2
23/08:00am 0.7 -2.4 -0.1 94 0.3 SE 6 9 3 5 1032.4 1032.5 0.2
23/07:30am 1.1 -2.0 0.3 94 0.3 SSE 6 7 3 4 1032.2 1032.3 0.2
23/07:00am 1.6 -1.1 0.5 92 0.4 NW 4 6 2 3 1032.2 1032.3 0.2
23/06:30am 1.0 -0.9 0.5 96 0.2 CALM 0 0 0 0 1032.0 1032.1 0.2
23/06:00am 0.6 -1.4 -0.2 94 0.3 CALM 0 0 0 0 1031.5 1031.6 0.2
23/05:30am 1.2 -0.8 0.1 92 0.4 CALM 0 0 0 0 1031.2 1031.3 0.2
23/05:00am 0.8 -1.2 0.0 94 0.3 CALM 0 0 0 0 1031.1 1031.2 0.2
23/04:30am 0.4 - - - - CALM 0 0 0 0 1030.9 1031.0 0.2
23/04:00am 0.5 - - - - CALM 0 0 0 0 1031.0 1031.1 0.2
23/03:30am 0.6 - - - - SW 6 9 3 5 1030.9 1031.0 0.2
23/03:00am 0.2 - - - - WSW 6 11 3 6 1031.0 1031.1 0.2
23/02:30am 0.0 - - - - CALM 0 0 0 0 1031.1 1031.2 0.2
23/02:00am 0.3 - - - - NE 4 7 2 4 1031.1 1031.2 0.2
23/01:30am 0.7 -1.7 -0.1 94 0.3 W 2 6 1 3 1031.0 1031.1 0.2
23/01:00am 0.5 -2.3 -0.1 96 0.2 W 4 9 2 5 1031.1 1031.2 0.2
23/12:30am 2.1 -1.5 0.5 89 0.6 W 9 13 5 7 1031.2 1031.3 0.0
23/12:00am 3.1 -0.4 1.5 89 0.6 WSW 9 11 5 6 1031.2 1031.3 0.0
 
Date/Time
CST
Temp
°C
App
Temp
°C
Dew
Point
°C
Rel
Hum
%
Delta-T
°C
Wind Press
QNH
hPa
Press
MSL
hPa
Rain since
9am
mm
Dir  Spd
km/h
Gust
km/h
Spd
kts
Gust
kts
22/11:30pm 2.6 -0.5 1.3 91 0.5 SW 7 9 4 5 1031.4 1031.5 0.0
22/11:00pm 3.3 0.5 1.8 90 0.6 SSW 6 9 3 5 1031.4 1031.5 0.0
22/10:30pm 3.4 0.0 1.9 90 0.6 SSW 9 9 5 5 1031.1 1031.2 0.0
22/10:00pm 4.5 1.3 2.8 89 0.7 S 9 13 5 7 1031.1 1031.2 0.0
22/09:30pm 3.9 0.2 2.4 90 0.6 SSW 11 13 6 7 1031.1 1031.2 0.0
22/09:00pm 4.0 1.1 2.8 92 0.5 S 7 9 4 5 1031.2 1031.3 0.0
22/08:30pm 4.5 1.3 2.8 89 0.7 S 9 9 5 5 1031.2 1031.3 0.0
22/08:00pm 4.7 1.6 1.4 79 1.3 S 7 9 4 5 1031.3 1031.4 0.0
22/07:30pm 5.2 2.4 1.9 79 1.3 S 6 7 3 4 1031.2 1031.3 0.0
22/07:00pm 6.2 4.6 2.5 77 1.5 CALM 0 2 0 1 1031.1 1031.2 0.0
22/06:30pm 6.5 3.7 3.1 79 1.4 S 7 9 4 5 1030.9 1031.0 0.0
22/06:00pm 7.2 4.5 3.7 78 1.5 S 7 9 4 5 1030.8 1030.9 0.0
22/05:30pm 8.9 5.0 3.5 69 2.3 S 13 15 7 8 1030.6 1030.7 0.0
22/05:00pm 9.2 6.4 3.4 67 2.5 S 7 9 4 5 1030.5 1030.6 0.0
22/04:30pm 11.5 9.0 1.8 51 4.1 SE 4 6 2 3 1030.3 1030.4 0.0
22/04:00pm 11.5 8.7 2.1 52 4.0 SSE 6 7 3 4 1030.4 1030.5 0.0
22/03:30pm 12.3 8.8 1.4 47 4.6 SSE 9 13 5 7 1030.4 1030.5 0.0
22/03:00pm 13.0 9.9 1.5 45 4.9 ENE 7 11 4 6 1030.3 1030.4 0.0
22/02:30pm 12.7 9.9 2.0 48 4.6 NE 6 9 3 5 1030.3 1030.4 0.0
22/02:00pm 12.6 9.2 2.1 49 4.5 NNE 9 15 5 8 1030.5 1030.6 0.0
22/01:30pm 12.8 9.4 2.1 48 4.6 N 9 15 5 8 1030.8 1030.9 0.0
22/01:00pm 12.4 8.4 3.0 52 4.1 NNE 13 19 7 10 1031.3 1031.4 0.0
22/12:30pm 11.8 7.9 3.6 57 3.6 NNE 13 19 7 10 1031.9 1032.0 0.0
22/12:00pm 11.5 7.6 3.5 58 3.5 NNE 13 19 7 10 1032.5 1032.6 0.0
22/11:30am 10.9 7.1 3.8 61 3.1 NNE 13 19 7 10 1033.0 1033.1 0.0
22/11:00am 10.2 6.4 3.8 64 2.8 NNE 13 17 7 9 1033.3 1033.4 0.0
22/10:30am 9.0 6.3 3.6 69 2.3 ENE 7 9 4 5 1033.6 1033.7 0.0
22/10:00am 8.0 5.3 3.5 73 1.9 NNE 7 9 4 5 1033.6 1033.7 0.0
22/09:30am 6.8 4.1 2.9 76 1.6 NNW 6 7 3 4 1033.5 1033.6 0.0
22/09:00am 3.9 2.2 2.1 88 0.7 CALM 0 0 0 0 1033.4 1033.5 0.0
22/08:30am 1.5 -0.4 0.7 94 0.3 CALM 0 0 0 0 1033.1 1033.2 0.0
22/08:00am -0.7 - - - - CALM 0 0 0 0 1032.9 1033.0 0.0
22/07:30am -0.6 - - - - CALM 0 0 0 0 1032.6 1032.7 0.0
22/07:00am -1.1 - - - - CALM 0 2 0 1 1032.3 1032.4 0.0
22/06:30am -0.4 - - - - WNW 6 7 3 4 1031.9 1032.0 0.0
22/06:00am -0.6 - - - - CALM 0 0 0 0 1031.7 1031.8 0.0
22/05:30am 0.0 - - - - CALM 0 0 0 0 1031.6 1031.7 0.0
22/05:00am -0.4 - - - - CALM 0 0 0 0 1031.4 1031.5 0.0
22/04:30am 0.3 - - - - CALM 0 0 0 0 1031.5 1031.6 0.0
22/04:00am 0.7 - - - - CALM 0 0 0 0 1031.5 1031.6 0.0
22/03:30am -0.1 - - - - CALM 0 0 0 0 1031.6 1031.7 0.0
22/03:00am -0.1 - - - - N 4 9 2 5 1031.8 1031.9 0.0
22/02:30am 0.2 - - - - CALM 0 0 0 0 1031.7 1031.8 0.0
22/02:00am 0.7 -1.3 -0.4 92 0.4 CALM 0 0 0 0 1031.7 1031.8 0.0
22/01:30am 1.6 -0.7 0.2 90 0.5 WSW 2 7 1 4 1031.7 1031.8 0.0
22/01:00am 1.7 -0.2 0.3 90 0.5 CALM 0 0 0 0 1031.8 1031.9 0.0
22/12:30am 1.3 -0.7 0.2 92 0.4 CALM 0 0 0 0 1031.9 1032.0 0.0
22/12:00am 1.5 -0.5 0.1 90 0.5 CALM 0 0 0 0 1032.1 1032.2 0.0
 
Date/Time
CST
Temp
°C
App
Temp
°C
Dew
Point
°C
Rel
Hum
%
Delta-T
°C
Wind Press
QNH
hPa
Press
MSL
hPa
Rain since
9am
mm
Dir  Spd
km/h
Gust
km/h
Spd
kts
Gust
kts
21/11:30pm 1.4 -0.6 0.0 90 0.5 CALM 0 6 0 3 1032.2 1032.3 0.0

Latest Capital City Observations: Canberra | Sydney | Melbourne | Brisbane | Adelaide | Perth | Hobart | Darwin

Other formats

Comma delimited format used in spreadsheet applications
http://www.bom.gov.au/fwo/IDS60901/IDS60901.95818.axf

JavaScript Object Notation format (JSON) in row-major order
http://www.bom.gov.au/fwo/IDS60901/IDS60901.95818.json

Data quality

Most of these data are generated automatically and are frequently updated. Quality checks on data are not normally performed. It is possible for incorrect values to appear. Refer to information at About Latest Weather Observations and please check the disclaimer before using these data.